createdAt,value
2023-04-16T00:01:37.371Z,100932.13
2023-04-16T00:04:04.075Z,100927.94
2023-04-16T00:06:30.582Z,100929.69
2023-04-16T00:08:56.996Z,100936.66
2023-04-16T00:11:23.496Z,100930.53
2023-04-16T00:13:49.843Z,100933.25
2023-04-16T00:16:16.344Z,100927.88
2023-04-16T00:18:45.286Z,100934.84
2023-04-16T00:21:11.660Z,100932.34
2023-04-16T00:23:38.186Z,100927.94
2023-04-16T00:26:04.574Z,100933.22
2023-04-16T00:28:30.981Z,100931.72
2023-04-16T00:30:57.346Z,100934.13
2023-04-16T00:33:23.741Z,100934.97
2023-04-16T00:35:50.740Z,100929.69
2023-04-16T00:38:17.200Z,100924.53
2023-04-16T00:40:43.593Z,100930.81
2023-04-16T00:43:09.943Z,100928.41
2023-04-16T00:45:36.329Z,100930.72
2023-04-16T00:48:03.820Z,100928.19
2023-04-16T00:50:30.293Z,100931.69
2023-04-16T00:52:56.673Z,100930.75
2023-04-16T00:55:24.679Z,100930.03
2023-04-16T00:57:51.031Z,100933.50
2023-04-16T01:00:17.452Z,100935.31
2023-04-16T01:02:44.473Z,100937.19
2023-04-16T01:05:11.359Z,100936.41
2023-04-16T01:07:37.726Z,100942.56
2023-04-16T01:10:04.313Z,100939.13
2023-04-16T01:12:31.140Z,100939.03
2023-04-16T01:14:57.512Z,100940.13
2023-04-16T01:17:23.875Z,100942.75
2023-04-16T01:19:50.254Z,100945.41
2023-04-16T01:22:17.263Z,100939.28
2023-04-16T01:24:44.092Z,100944.47
2023-04-16T01:27:10.763Z,100939.28
2023-04-16T01:29:39.877Z,100935.94
2023-04-16T01:32:06.283Z,100943.00
2023-04-16T01:34:32.685Z,100943.72
2023-04-16T01:36:59.080Z,100937.63
2023-04-16T01:39:25.736Z,100939.50
2023-04-16T01:41:52.110Z,100941.25
2023-04-16T01:44:18.488Z,100940.16
2023-04-16T01:46:45.156Z,100935.19
2023-04-16T01:49:11.931Z,100932.56
2023-04-16T01:51:38.530Z,100932.56
2023-04-16T01:54:04.878Z,100936.81
2023-04-16T01:56:31.266Z,100934.38
2023-04-16T01:58:57.648Z,100936.94
2023-04-16T02:01:24.272Z,100938.75
2023-04-16T02:03:51.376Z,100940.34
2023-04-16T02:06:17.792Z,100941.38
2023-04-16T02:08:44.201Z,100939.63
2023-04-16T02:11:10.792Z,100940.38
2023-04-16T02:13:37.186Z,100945.72
2023-04-16T02:16:08.942Z,100942.38
2023-04-16T02:18:35.407Z,100940.47
2023-04-16T02:21:02.260Z,100945.91
2023-04-16T02:23:28.593Z,100937.31
2023-04-16T02:25:57.174Z,100945.09
2023-04-16T02:28:23.589Z,100938.38
2023-04-16T02:30:49.917Z,100946.00
2023-04-16T02:33:16.280Z,100939.22
2023-04-16T02:35:43.206Z,100945.34
2023-04-16T02:38:09.654Z,100938.41
2023-04-16T02:40:36.221Z,100945.25
2023-04-16T02:43:02.925Z,100945.28
2023-04-16T02:45:31.437Z,100946.31
2023-04-16T02:47:57.890Z,100945.25
2023-04-16T02:50:24.275Z,100942.75
2023-04-16T02:52:51.576Z,100950.63
2023-04-16T02:55:17.928Z,100951.63
2023-04-16T02:57:44.326Z,100952.44
2023-04-16T03:00:13.456Z,100951.69
2023-04-16T03:02:39.864Z,100952.56
2023-04-16T03:05:06.571Z,100955.19
2023-04-16T03:07:32.917Z,100960.31
2023-04-16T03:10:00.631Z,100955.94
2023-04-16T03:12:27.012Z,100952.44
2023-04-16T03:14:53.410Z,100958.53
2023-04-16T03:17:19.778Z,100957.72
2023-04-16T03:19:46.280Z,100961.19
2023-04-16T03:22:12.634Z,100960.28
2023-04-16T03:24:38.971Z,100952.44
2023-04-16T03:27:05.368Z,100961.31
2023-04-16T03:29:31.706Z,100964.66
2023-04-16T03:31:58.427Z,100962.25
2023-04-16T03:34:24.961Z,100965.72
2023-04-16T03:36:51.306Z,100963.28
2023-04-16T03:39:17.684Z,100960.63
2023-04-16T03:41:44.137Z,100959.63
2023-04-16T03:44:10.631Z,100970.19
2023-04-16T03:46:37.052Z,100971.06
2023-04-16T03:49:03.466Z,100971.88
2023-04-16T03:51:29.803Z,100974.56
2023-04-16T03:53:56.360Z,100977.09
2023-04-16T03:56:22.826Z,100983.25
2023-04-16T03:58:49.607Z,100976.28
2023-04-16T04:01:16.994Z,100976.34
2023-04-16T04:03:43.606Z,100983.34
2023-04-16T04:06:10.149Z,100985.03
2023-04-16T04:08:37.991Z,100982.44
2023-04-16T04:11:04.416Z,100984.25
2023-04-16T04:13:30.834Z,100987.72
2023-04-16T04:15:57.254Z,100988.50
2023-04-16T04:18:23.640Z,100999.91
2023-04-16T04:20:50.072Z,101003.31
2023-04-16T04:23:16.447Z,100993.94
2023-04-16T04:25:42.993Z,100997.41
2023-04-16T04:28:09.458Z,101006.09
2023-04-16T04:30:36.023Z,101005.22
2023-04-16T04:33:02.596Z,101004.41
2023-04-16T04:35:28.967Z,101005.94
2023-04-16T04:37:55.649Z,101006.03
2023-04-16T04:40:22.115Z,101000.88
2023-04-16T04:42:48.511Z,101006.22
2023-04-16T04:45:14.865Z,101011.41
2023-04-16T04:47:41.517Z,101014.81
2023-04-16T04:50:08.042Z,101011.34
2023-04-16T04:52:34.372Z,101013.06
2023-04-16T04:55:00.748Z,101014.78
2023-04-16T04:57:27.614Z,101010.50
2023-04-16T04:59:54.199Z,101022.69
2023-04-16T05:02:20.866Z,101020.13
2023-04-16T05:04:47.397Z,101024.44
2023-04-16T05:07:13.793Z,101026.06
2023-04-16T05:09:40.567Z,101020.09
2023-04-16T05:12:07.118Z,101018.38
2023-04-16T05:14:33.869Z,101022.66
2023-04-16T05:17:00.604Z,101020.94
2023-04-16T05:19:26.975Z,101025.25
2023-04-16T05:21:53.415Z,101027.78
2023-04-16T05:24:19.969Z,101034.63
2023-04-16T05:26:46.380Z,101032.78
2023-04-16T05:29:12.730Z,101035.69
2023-04-16T05:31:39.168Z,101048.66
2023-04-16T05:34:05.495Z,101045.94
2023-04-16T05:36:31.852Z,101045.03
2023-04-16T05:38:58.258Z,101041.59
2023-04-16T05:41:24.620Z,101053.69
2023-04-16T05:43:51.045Z,101050.22
2023-04-16T05:46:17.490Z,101046.72
2023-04-16T05:48:43.935Z,101050.91
2023-04-16T05:51:10.380Z,101053.47
2023-04-16T05:53:37.157Z,101051.72
2023-04-16T05:56:03.483Z,101055.44
2023-04-16T05:58:30.400Z,101056.19
2023-04-16T06:01:05.559Z,101064.88
2023-04-16T06:03:32.113Z,101064.03
2023-04-16T06:05:58.663Z,101067.41
2023-04-16T06:08:25.249Z,101062.22
2023-04-16T06:10:51.602Z,101068.38
2023-04-16T06:13:18.459Z,101069.25
2023-04-16T06:15:46.078Z,101066.63
2023-04-16T06:18:12.652Z,101075.13
2023-04-16T06:20:39.150Z,101082.91
2023-04-16T06:23:05.509Z,101066.31
2023-04-16T06:25:31.984Z,101072.44
2023-04-16T06:28:00.556Z,101082.03
2023-04-16T06:30:26.899Z,101076.75
2023-04-16T06:32:53.251Z,101081.16
2023-04-16T06:35:20.373Z,101080.38
2023-04-16T06:37:47.028Z,101081.25
2023-04-16T06:40:13.354Z,101082.03
2023-04-16T06:42:39.778Z,101086.50
2023-04-16T06:45:06.512Z,101093.34
2023-04-16T06:47:32.893Z,101093.25
2023-04-16T06:49:59.408Z,101088.91
2023-04-16T06:52:26.106Z,101099.09
2023-04-16T06:54:52.490Z,101095.50
2023-04-16T06:57:18.863Z,101095.75
2023-04-16T06:59:45.197Z,101100.88
2023-04-16T07:02:11.622Z,101102.50
2023-04-16T07:04:40.696Z,101091.34
2023-04-16T07:07:07.027Z,101093.97
2023-04-16T07:09:33.435Z,101097.63
2023-04-16T07:11:59.845Z,101101.06
2023-04-16T07:14:26.305Z,101110.63
2023-04-16T07:16:53.922Z,101107.91
2023-04-16T07:19:21.583Z,101108.84
2023-04-16T07:21:47.996Z,101110.34
2023-04-16T07:24:14.408Z,101115.44
2023-04-16T07:26:41.040Z,101103.50
2023-04-16T07:29:07.523Z,101105.75
2023-04-16T07:31:34.074Z,101118.03
2023-04-16T07:34:00.663Z,101115.34
2023-04-16T07:36:28.303Z,101118.84
2023-04-16T07:38:54.908Z,101114.53
2023-04-16T07:41:22.873Z,101120.53
2023-04-16T07:43:49.648Z,101122.31
2023-04-16T07:46:16.289Z,101121.31
2023-04-16T07:48:42.946Z,101125.66
2023-04-16T07:51:09.394Z,101130.06
2023-04-16T07:53:36.058Z,101124.28
2023-04-16T07:56:02.509Z,101132.97
2023-04-16T07:58:28.869Z,101135.16
2023-04-16T08:00:55.351Z,101140.28
2023-04-16T08:03:22.183Z,101135.16
2023-04-16T08:05:48.688Z,101138.31
2023-04-16T08:08:15.037Z,101139.31
2023-04-16T08:10:41.476Z,101138.69
2023-04-16T08:13:07.818Z,101139.91
2023-04-16T08:15:34.180Z,101149.59
2023-04-16T08:18:02.561Z,101150.41
2023-04-16T08:20:29.433Z,101145.25
2023-04-16T08:22:55.973Z,101150.94
2023-04-16T08:25:24.671Z,101144.25
2023-04-16T08:27:51.074Z,101147.31
2023-04-16T08:30:17.547Z,101151.69
2023-04-16T08:32:43.994Z,101149.66
2023-04-16T08:35:10.554Z,101149.44
2023-04-16T08:37:36.961Z,101153.44
2023-04-16T08:40:03.551Z,101153.25
2023-04-16T08:42:33.450Z,101155.97
2023-04-16T08:45:05.503Z,101152.81
2023-04-16T08:47:31.895Z,101149.69
2023-04-16T08:49:58.544Z,101153.97
2023-04-16T08:52:25.016Z,101163.50
2023-04-16T08:54:57.066Z,101157.47
2023-04-16T08:57:23.589Z,101160.63
2023-04-16T08:59:50.142Z,101168.91
2023-04-16T09:02:16.618Z,101165.63
2023-04-16T09:04:43.379Z,101171.88
2023-04-16T09:07:09.844Z,101164.63
2023-04-16T09:09:36.215Z,101175.63
2023-04-16T09:12:02.615Z,101175.34
2023-04-16T09:14:29.102Z,101171.25
2023-04-16T09:16:55.693Z,101176.69
2023-04-16T09:19:22.048Z,101179.09
2023-04-16T09:21:48.520Z,101179.75
2023-04-16T09:26:41.747Z,101183.19
2023-04-16T09:29:09.777Z,101192.75
2023-04-16T09:31:36.780Z,101191.06
2023-04-16T09:34:03.238Z,101193.06
2023-04-16T09:36:29.758Z,101198.44
2023-04-16T09:38:57.789Z,101199.56
2023-04-16T09:41:24.796Z,101201.50
2023-04-16T09:43:58.386Z,101202.91
2023-04-16T09:46:34.795Z,101199.19
2023-04-16T09:49:10.653Z,101194.53
2023-04-16T09:51:37.942Z,101202.81
2023-04-16T09:54:04.774Z,101209.03
2023-04-16T09:56:31.162Z,101210.19
2023-04-16T09:59:00.187Z,101213.22
2023-04-16T10:01:26.630Z,101207.28
2023-04-16T10:03:53.873Z,101213.88
2023-04-16T10:06:21.077Z,101215.84
2023-04-16T10:08:50.664Z,101214.19
2023-04-16T10:11:19.021Z,101215.72
2023-04-16T10:13:45.608Z,101218.03
2023-04-16T10:16:12.164Z,101226.59
2023-04-16T10:18:41.994Z,101221.09
2023-04-16T10:21:10.930Z,101220.09
2023-04-16T10:23:37.249Z,101225.75
2023-04-16T10:26:03.668Z,101222.81
2023-04-16T10:28:30.588Z,101220.38
2023-04-16T10:30:57.330Z,101224.84
2023-04-16T10:33:25.031Z,101223.13
2023-04-16T10:36:04.997Z,101223.50
2023-04-16T10:38:33.636Z,101229.28
2023-04-16T10:41:03.000Z,101228.78
2023-04-16T10:43:30.381Z,101229.53
2023-04-16T10:45:56.912Z,101229.03
2023-04-16T10:48:27.462Z,101231.63
2023-04-16T10:50:57.768Z,101234.59
2023-04-16T10:53:25.023Z,101239.28
2023-04-16T10:56:04.378Z,101239.03
2023-04-16T10:58:31.167Z,101247.56
2023-04-16T11:01:01.270Z,101242.63
2023-04-16T11:03:31.858Z,101250.78
2023-04-16T11:06:11.205Z,101245.72
2023-04-16T11:08:51.133Z,101261.28
2023-04-16T11:11:21.254Z,101256.81
2023-04-16T11:13:47.893Z,101261.94
2023-04-16T11:16:14.996Z,101265.53
2023-04-16T11:18:47.689Z,101258.22
2023-04-16T11:21:18.065Z,101267.38
2023-04-16T11:23:51.296Z,101269.63
2023-04-16T11:26:25.322Z,101270.63
2023-04-16T11:28:51.888Z,101279.09
2023-04-16T11:31:18.363Z,101278.34
2023-04-16T11:33:44.883Z,101274.81
2023-04-16T11:36:11.238Z,101274.69
2023-04-16T11:38:37.788Z,101281.22
2023-04-16T11:41:04.642Z,101277.00
2023-04-16T11:43:32.354Z,101278.75
2023-04-16T11:45:59.679Z,101277.72
2023-04-16T11:48:26.547Z,101289.81
2023-04-16T11:50:58.924Z,101291.81
2023-04-16T11:53:25.706Z,101289.53
2023-04-16T11:55:52.203Z,101286.53
2023-04-16T11:58:20.111Z,101289.53
2023-04-16T12:00:47.413Z,101284.31
2023-04-16T12:03:14.132Z,101292.00
2023-04-16T12:05:40.766Z,101288.31
2023-04-16T12:08:08.059Z,101290.47
2023-04-16T12:10:36.835Z,101298.34
2023-04-16T12:13:12.415Z,101291.63
2023-04-16T12:15:48.640Z,101292.13
2023-04-16T12:18:19.362Z,101292.72
2023-04-16T12:20:46.568Z,101293.75
2023-04-16T12:23:22.557Z,101296.69
2023-04-16T12:25:50.034Z,101301.63
2023-04-16T12:28:27.302Z,101305.41
2023-04-16T12:30:53.769Z,101303.44
2023-04-16T12:33:21.191Z,101308.72
2023-04-16T12:35:47.792Z,101304.63
2023-04-16T12:38:15.398Z,101309.88
2023-04-16T12:40:41.883Z,101300.19
2023-04-16T12:43:09.518Z,101304.00
2023-04-16T12:45:36.164Z,101305.28
2023-04-16T12:48:02.988Z,101308.53
2023-04-16T12:50:29.553Z,101305.88
2023-04-16T12:52:56.392Z,101310.19
2023-04-16T12:55:22.964Z,101297.53
2023-04-16T12:57:50.254Z,101304.84
2023-04-16T13:00:16.736Z,101307.28
2023-04-16T13:02:43.291Z,101307.22
2023-04-16T13:05:10.168Z,101313.31
2023-04-16T13:07:36.529Z,101317.00
2023-04-16T13:10:02.894Z,101312.13
2023-04-16T13:12:29.381Z,101314.38
2023-04-16T13:14:58.198Z,101316.66
2023-04-16T13:17:24.630Z,101318.44
2023-04-16T13:19:51.047Z,101311.69
2023-04-16T13:22:17.564Z,101320.75
2023-04-16T13:24:44.149Z,101327.94
2023-04-16T13:27:11.378Z,101318.00
2023-04-16T13:29:37.740Z,101323.84
2023-04-16T13:32:04.223Z,101320.16
2023-04-16T13:34:30.764Z,101324.00
2023-04-16T13:36:57.101Z,101319.00
2023-04-16T13:39:23.423Z,101318.56
2023-04-16T13:41:50.401Z,101327.75
2023-04-16T13:44:16.749Z,101332.09
2023-04-16T13:46:47.534Z,101332.38
2023-04-16T13:49:14.324Z,101331.66
2023-04-16T13:51:43.632Z,101330.25
2023-04-16T13:54:12.828Z,101334.69
2023-04-16T13:56:39.325Z,101333.13
2023-04-16T13:59:10.632Z,101326.19
2023-04-16T14:01:37.189Z,101327.81
2023-04-16T14:04:06.411Z,101326.00
2023-04-16T14:06:33.977Z,101327.81
2023-04-16T14:09:00.422Z,101326.25
2023-04-16T14:11:26.892Z,101326.09
2023-04-16T14:13:53.291Z,101329.16
2023-04-16T14:16:19.901Z,101328.03
2023-04-16T14:18:46.383Z,101326.31
2023-04-16T14:21:13.106Z,101324.69
2023-04-16T14:23:39.559Z,101331.56
2023-04-16T14:26:06.023Z,101331.38
2023-04-16T14:28:32.536Z,101334.59
2023-04-16T14:30:58.919Z,101338.13
2023-04-16T14:33:25.369Z,101338.69
2023-04-16T14:35:52.200Z,101339.94
2023-04-16T14:38:18.620Z,101344.50
2023-04-16T14:40:45.055Z,101337.38
2023-04-16T14:43:11.471Z,101335.19
2023-04-16T14:45:38.979Z,101337.50
2023-04-16T14:48:06.311Z,101338.31
2023-04-16T14:50:36.577Z,101342.28
2023-04-16T14:53:03.244Z,101338.97
2023-04-16T14:55:29.639Z,101340.19
2023-04-16T14:57:56.374Z,101351.38
2023-04-16T15:00:22.798Z,101347.53
2023-04-16T15:02:49.285Z,101355.53
2023-04-16T15:05:15.761Z,101351.50
2023-04-16T15:07:42.130Z,101351.72
2023-04-16T15:10:08.932Z,101359.38
2023-04-16T15:12:35.265Z,101355.56
2023-04-16T15:15:01.675Z,101357.44
2023-04-16T15:17:28.126Z,101361.69
2023-04-16T15:19:54.539Z,101355.66
2023-04-16T15:22:20.905Z,101357.97
2023-04-16T15:24:49.835Z,101369.25
2023-04-16T15:27:17.638Z,101363.47
2023-04-16T15:29:48.060Z,101367.81
2023-04-16T15:32:14.539Z,101359.34
2023-04-16T15:34:41.496Z,101370.94
2023-04-16T15:37:08.252Z,101373.69
2023-04-16T15:39:34.622Z,101374.06
2023-04-16T15:42:03.008Z,101371.19
2023-04-16T15:44:31.415Z,101373.69
2023-04-16T15:46:57.848Z,101383.84
2023-04-16T15:49:24.759Z,101382.38
2023-04-16T15:51:51.780Z,101381.25
2023-04-16T15:54:18.505Z,101377.03
2023-04-16T15:56:45.421Z,101380.56
2023-04-16T15:59:12.357Z,101379.19
2023-04-16T16:01:39.066Z,101376.91
2023-04-16T16:04:06.951Z,101381.88
2023-04-16T16:06:33.508Z,101389.72
2023-04-16T16:08:59.882Z,101384.66
2023-04-16T16:11:28.309Z,101386.09
2023-04-16T16:13:54.802Z,101387.25
2023-04-16T16:16:21.941Z,101397.91
2023-04-16T16:18:48.719Z,101392.59
2023-04-16T16:21:15.184Z,101396.97
2023-04-16T16:23:42.021Z,101395.06
2023-04-16T16:26:09.847Z,101389.19
2023-04-16T16:28:39.301Z,101402.56
2023-04-16T16:31:06.080Z,101400.78
2023-04-16T16:33:32.822Z,101404.28
2023-04-16T16:35:59.223Z,101401.75
2023-04-16T16:38:25.882Z,101403.81
2023-04-16T16:40:52.305Z,101404.78
2023-04-16T16:43:18.698Z,101398.59
2023-04-16T16:45:45.252Z,101401.41
2023-04-16T16:48:11.560Z,101399.66
2023-04-16T16:50:37.916Z,101404.88
2023-04-16T16:53:04.352Z,101408.34
2023-04-16T16:55:31.019Z,101408.47
2023-04-16T16:57:59.815Z,101418.16
2023-04-16T17:00:26.399Z,101420.75
2023-04-16T17:02:53.245Z,101420.78
2023-04-16T17:05:19.938Z,101414.56
2023-04-16T17:07:46.718Z,101423.50
2023-04-16T17:10:15.933Z,101423.59
2023-04-16T17:12:42.283Z,101417.41
2023-04-16T17:15:08.965Z,101421.25
2023-04-16T17:17:35.402Z,101425.59
2023-04-16T17:20:03.400Z,101429.88
2023-04-16T17:22:30.022Z,101426.63
2023-04-16T17:24:57.798Z,101425.59
2023-04-16T17:27:24.536Z,101427.34
2023-04-16T17:29:51.103Z,101426.41
2023-04-16T17:32:17.607Z,101434.63
2023-04-16T17:34:44.103Z,101437.09
2023-04-16T17:37:10.523Z,101442.31
2023-04-16T17:39:36.992Z,101433.69
2023-04-16T17:42:03.977Z,101441.69
2023-04-16T17:44:43.964Z,101445.13
2023-04-16T17:47:10.748Z,101443.53
2023-04-16T17:49:37.141Z,101446.13
2023-04-16T17:52:03.613Z,101449.72
2023-04-16T17:54:29.990Z,101454.97
2023-04-16T17:56:57.452Z,101454.94
2023-04-16T17:59:23.904Z,101459.19
2023-04-16T18:01:50.407Z,101460.03
2023-04-16T18:04:17.221Z,101450.53
2023-04-16T18:06:44.147Z,101460.06
2023-04-16T18:09:10.620Z,101454.91
2023-04-16T18:11:37.205Z,101462.72
2023-04-16T18:14:03.567Z,101458.44
2023-04-16T18:16:29.912Z,101464.47
2023-04-16T18:18:56.305Z,101465.41
2023-04-16T18:21:22.840Z,101471.59
2023-04-16T18:23:49.166Z,101467.22
2023-04-16T18:26:18.597Z,101470.66
2023-04-16T18:28:47.249Z,101482.03
2023-04-16T18:31:13.916Z,101473.31
2023-04-16T18:33:55.319Z,101481.09
2023-04-16T18:36:23.587Z,101473.31
2023-04-16T18:39:00.173Z,101481.22
2023-04-16T18:41:48.005Z,101481.22
2023-04-16T18:44:14.996Z,101488.31
2023-04-16T18:46:41.363Z,101481.44
2023-04-16T18:49:07.831Z,101481.44
2023-04-16T18:51:34.169Z,101491.94
2023-04-16T18:54:00.653Z,101487.63
2023-04-16T18:56:28.847Z,101484.09
2023-04-16T18:58:55.379Z,101482.31
2023-04-16T19:01:21.788Z,101484.06
2023-04-16T19:03:48.392Z,101490.16
2023-04-16T19:06:14.764Z,101485.75
2023-04-16T19:08:41.115Z,101491.94
2023-04-16T19:11:07.550Z,101490.25
2023-04-16T19:13:33.939Z,101492.84
2023-04-16T19:16:02.275Z,101496.31
2023-04-16T19:18:29.133Z,101493.72
2023-04-16T19:20:59.715Z,101506.00
2023-04-16T19:23:26.995Z,101494.63
2023-04-16T19:25:53.648Z,101501.53
2023-04-16T19:28:20.052Z,101502.47
2023-04-16T19:30:46.705Z,101504.34
2023-04-16T19:33:13.234Z,101501.69
2023-04-16T19:35:42.096Z,101498.19
2023-04-16T19:38:10.309Z,101506.84
2023-04-16T19:40:37.309Z,101505.94
2023-04-16T19:43:03.716Z,101516.38
2023-04-16T19:45:30.403Z,101511.22
2023-04-16T19:47:57.132Z,101514.63
2023-04-16T19:50:23.971Z,101513.84
2023-04-16T19:52:50.375Z,101518.22
2023-04-16T19:55:16.934Z,101514.78
2023-04-16T19:57:43.367Z,101517.38
2023-04-16T20:00:11.419Z,101520.91
2023-04-16T20:02:38.147Z,101519.91
2023-04-16T20:05:04.726Z,101515.69
2023-04-16T20:07:31.098Z,101522.66
2023-04-16T20:09:57.521Z,101520.81
2023-04-16T20:12:23.958Z,101513.88
2023-04-16T20:14:50.407Z,101511.28
2023-04-16T20:17:18.539Z,101512.19
2023-04-16T20:19:47.291Z,101514.78
2023-04-16T20:22:14.918Z,101507.03
2023-04-16T20:24:47.775Z,101509.63
2023-04-16T20:27:15.038Z,101509.63
2023-04-16T20:29:41.770Z,101508.75
2023-04-16T20:32:08.263Z,101512.28
2023-04-16T20:34:34.658Z,101507.13
2023-04-16T20:37:01.019Z,101505.31
2023-04-16T20:39:27.444Z,101513.13
2023-04-16T20:41:57.834Z,101506.19
2023-04-16T20:44:26.173Z,101513.22
2023-04-16T20:46:56.229Z,101507.09
2023-04-16T20:49:22.856Z,101514.94
2023-04-16T20:51:49.245Z,101516.63
2023-04-16T20:54:15.783Z,101518.41
2023-04-16T20:56:43.142Z,101521.03
2023-04-16T20:59:10.293Z,101521.06
2023-04-16T21:01:36.968Z,101533.25
2023-04-16T21:04:03.636Z,101529.75
2023-04-16T21:06:32.975Z,101531.50
2023-04-16T21:09:01.744Z,101521.91
2023-04-16T21:11:33.165Z,101527.16
2023-04-16T21:13:59.508Z,101521.91
2023-04-16T21:16:25.905Z,101521.94
2023-04-16T21:18:52.391Z,101527.16
2023-04-16T21:21:19.921Z,101525.44
2023-04-16T21:23:46.435Z,101515.91
2023-04-16T21:26:13.115Z,101522.88
2023-04-16T21:28:39.708Z,101519.41
2023-04-16T21:31:07.431Z,101523.78
2023-04-16T21:33:33.807Z,101519.41
2023-04-16T21:36:00.300Z,101514.19
2023-04-16T21:38:26.731Z,101515.03
2023-04-16T21:40:56.725Z,101513.34
2023-04-16T21:43:23.420Z,101515.91
2023-04-16T21:45:53.899Z,101510.69
2023-04-16T21:48:20.950Z,101508.06
2023-04-16T21:50:54.336Z,101511.56
2023-04-16T21:53:20.701Z,101514.19
2023-04-16T21:55:47.496Z,101508.94
2023-04-16T21:58:15.692Z,101508.06
2023-04-16T22:00:43.376Z,101516.75
2023-04-16T22:03:12.402Z,101518.50
2023-04-16T22:05:39.022Z,101515.03
2023-04-16T22:08:23.597Z,101518.50
2023-04-16T22:10:51.297Z,101518.47
2023-04-16T22:13:17.954Z,101521.06
2023-04-16T22:15:46.681Z,101523.69
2023-04-16T22:18:13.089Z,101518.41
2023-04-16T22:20:39.804Z,101521.00
2023-04-16T22:23:07.378Z,101522.75
2023-04-16T22:25:34.924Z,101521.88
2023-04-16T22:28:01.593Z,101519.28
2023-04-16T22:30:30.526Z,101524.53
2023-04-16T22:32:57.795Z,101528.81
2023-04-16T22:35:24.187Z,101531.41
2023-04-16T22:37:50.567Z,101523.59
2023-04-16T22:40:17.594Z,101533.16
2023-04-16T22:42:44.038Z,101523.59
2023-04-16T22:45:10.739Z,101536.59
2023-04-16T22:47:37.209Z,101534.91
2023-04-16T22:50:04.982Z,101534.91
2023-04-16T22:52:31.351Z,101535.69
2023-04-16T22:54:57.719Z,101533.13
2023-04-16T22:57:25.673Z,101534.88
2023-04-16T22:59:52.997Z,101539.22
2023-04-16T23:02:19.953Z,101540.06
2023-04-16T23:04:47.786Z,101547.91
2023-04-16T23:07:14.874Z,101547.00
2023-04-16T23:09:41.303Z,101542.69
2023-04-16T23:12:07.740Z,101547.94
2023-04-16T23:14:34.540Z,101540.16
2023-04-16T23:17:01.361Z,101540.97
2023-04-16T23:19:27.764Z,101543.59
2023-04-16T23:21:54.125Z,101540.03
2023-04-16T23:24:20.566Z,101548.78
2023-04-16T23:26:47.964Z,101547.09
2023-04-16T23:29:14.336Z,101540.13
2023-04-16T23:31:40.879Z,101540.97
2023-04-16T23:34:07.895Z,101546.19
2023-04-16T23:36:34.226Z,101540.97
2023-04-16T23:39:00.775Z,101535.78
2023-04-16T23:41:27.155Z,101547.09
2023-04-16T23:43:53.492Z,101540.13
2023-04-16T23:46:20.407Z,101549.69
2023-04-16T23:48:46.820Z,101547.06
2023-04-16T23:51:13.254Z,101543.63
2023-04-16T23:53:40.788Z,101549.69
2023-04-16T23:56:07.786Z,101551.38
2023-04-16T23:58:34.202Z,101551.38
